createdAt,value
2022-08-22T00:00:19.345Z,3.25
2022-08-22T00:02:42.672Z,2.83
2022-08-22T00:02:58.605Z,2.30
2022-08-22T00:03:16.175Z,3.63
2022-08-22T00:06:12.042Z,4.00
2022-08-22T00:08:47.123Z,4.05
2022-08-22T00:11:16.788Z,7.72
2022-08-22T00:16:17.369Z,4.43
2022-08-22T00:19:12.254Z,3.78
2022-08-22T00:21:51.700Z,5.45
2022-08-22T00:24:27.733Z,4.33
2022-08-22T00:27:23.601Z,5.63
2022-08-22T00:30:03.288Z,5.18
2022-08-22T00:32:38.772Z,4.82
2022-08-22T00:35:20.752Z,6.65
2022-08-22T00:37:56.801Z,5.78
2022-08-22T00:41:05.696Z,5.63
2022-08-22T00:44:04.705Z,7.32
2022-08-22T00:46:56.311Z,6.30
2022-08-22T00:49:56.998Z,5.72
2022-08-22T00:52:26.486Z,5.47
2022-08-22T00:55:08.604Z,5.53
2022-08-22T00:57:54.523Z,6.07
2022-08-22T01:00:29.952Z,5.90
2022-08-22T01:03:32.182Z,5.93
2022-08-22T01:06:13.829Z,6.82
2022-08-22T01:09:31.846Z,7.45
2022-08-22T01:12:30.200Z,6.30
2022-08-22T01:15:05.699Z,6.30
2022-08-22T01:17:47.448Z,5.68
2022-08-22T01:20:45.200Z,5.57
2022-08-22T01:23:36.298Z,6.68
2022-08-22T01:26:10.249Z,6.38
2022-08-22T01:29:03.410Z,8.35
2022-08-22T01:31:56.372Z,5.53
2022-08-22T01:34:32.727Z,5.07
2022-08-22T01:37:16.022Z,5.32
2022-08-22T01:40:13.862Z,4.75
2022-08-22T01:42:55.460Z,4.60
2022-08-22T01:45:41.299Z,4.97
2022-08-22T01:48:17.173Z,4.00
2022-08-22T01:51:03.700Z,4.70
2022-08-22T01:53:51.027Z,4.35
2022-08-22T01:56:23.056Z,4.50
2022-08-22T01:59:13.966Z,3.72
2022-08-22T02:02:02.895Z,4.40
2022-08-22T02:04:41.472Z,4.22
2022-08-22T02:07:31.732Z,4.78
2022-08-22T02:10:05.170Z,4.75
2022-08-22T02:12:41.506Z,4.47
2022-08-22T02:15:14.433Z,5.03
2022-08-22T02:18:12.295Z,5.38
2022-08-22T02:20:48.140Z,6.70
2022-08-22T02:23:23.810Z,6.97
2022-08-22T02:26:02.683Z,8.18
2022-08-22T02:28:40.381Z,7.83
2022-08-22T02:31:49.348Z,8.63
2022-08-22T02:34:31.491Z,7.57
2022-08-22T02:37:06.956Z,8.50
2022-08-22T02:39:42.388Z,8.68
2022-08-22T02:42:18.099Z,8.95
2022-08-22T02:45:26.497Z,10.13
2022-08-22T02:47:57.004Z,11.73
2022-08-22T02:50:36.199Z,12.95
2022-08-22T02:53:16.497Z,14.05
2022-08-22T02:55:56.486Z,14.20
2022-08-22T02:58:39.833Z,16.10
2022-08-22T03:01:16.317Z,18.05
2022-08-22T03:03:47.359Z,21.92
2022-08-22T03:06:34.928Z,23.58
2022-08-22T03:09:16.688Z,25.30
2022-08-22T03:11:49.542Z,25.83
2022-08-22T03:14:27.146Z,28.38
2022-08-22T03:17:06.120Z,29.95
2022-08-22T03:20:00.620Z,30.07
2022-08-22T03:22:49.051Z,31.33
2022-08-22T03:25:36.841Z,33.22
2022-08-22T03:28:26.427Z,32.60
2022-08-22T03:31:07.203Z,33.25
2022-08-22T03:33:34.078Z,32.40
2022-08-22T03:36:07.176Z,34.60
2022-08-22T03:38:34.304Z,35.10
2022-08-22T03:41:07.201Z,33.85
2022-08-22T03:43:58.188Z,34.53
2022-08-22T03:46:52.978Z,34.97
2022-08-22T03:49:38.589Z,37.67
2022-08-22T03:52:11.196Z,35.17
2022-08-22T03:54:55.972Z,38.85
2022-08-22T03:57:58.353Z,35.75
2022-08-22T04:00:34.480Z,36.67
2022-08-22T04:03:46.650Z,36.72
2022-08-22T04:06:48.310Z,38.00
2022-08-22T04:09:30.193Z,35.70
2022-08-22T04:12:22.454Z,38.08
2022-08-22T04:15:07.542Z,38.08
2022-08-22T04:18:12.866Z,35.85
2022-08-22T04:21:16.814Z,36.58
2022-08-22T04:24:19.143Z,36.55
2022-08-22T04:27:10.976Z,37.15
2022-08-22T04:29:45.829Z,36.03
2022-08-22T04:32:27.217Z,33.90
2022-08-22T04:35:08.230Z,34.65
2022-08-22T04:38:09.220Z,37.20
2022-08-22T04:41:22.312Z,39.28
2022-08-22T04:43:59.313Z,36.40
2022-08-22T04:46:55.891Z,37.03
2022-08-22T04:49:37.488Z,37.53
2022-08-22T04:52:22.755Z,34.35
2022-08-22T04:54:59.586Z,37.30
2022-08-22T04:58:06.686Z,36.17
2022-08-22T05:00:54.992Z,35.88
2022-08-22T05:03:27.078Z,35.17
2022-08-22T05:05:55.720Z,39.53
2022-08-22T05:08:26.569Z,36.08
2022-08-22T05:10:54.592Z,34.03
2022-08-22T05:13:30.310Z,36.25
2022-08-22T05:16:04.674Z,37.40
2022-08-22T05:18:39.999Z,35.80
2022-08-22T05:21:11.089Z,33.30
2022-08-22T05:23:50.861Z,36.88
2022-08-22T05:26:21.588Z,35.50
2022-08-22T05:28:58.089Z,36.22
2022-08-22T05:31:33.535Z,35.72
2022-08-22T05:34:07.030Z,37.00
2022-08-22T05:36:55.796Z,34.13
2022-08-22T05:39:28.051Z,38.87
2022-08-22T05:42:00.555Z,37.05
2022-08-22T05:44:34.434Z,37.30
2022-08-22T05:47:03.678Z,33.47
2022-08-22T05:49:43.010Z,35.85
2022-08-22T05:52:24.989Z,35.90
2022-08-22T05:55:04.973Z,36.53
2022-08-22T05:57:42.200Z,37.75
2022-08-22T06:00:13.228Z,34.80
2022-08-22T06:03:03.267Z,34.17
2022-08-22T06:05:36.130Z,33.97
2022-08-22T06:08:25.565Z,32.80
2022-08-22T06:10:59.289Z,28.98
2022-08-22T06:13:32.284Z,31.17
2022-08-22T06:16:36.056Z,31.80
2022-08-22T06:19:04.793Z,32.53
2022-08-22T06:21:50.252Z,31.02
2022-08-22T06:24:26.491Z,31.70
2022-08-22T06:29:58.828Z,31.33
2022-08-22T06:32:58.276Z,30.70
2022-08-22T06:35:25.424Z,30.58
2022-08-22T06:37:57.801Z,32.08
2022-08-22T06:40:28.343Z,30.63
2022-08-22T06:42:57.515Z,28.63
2022-08-22T06:45:32.521Z,30.80
2022-08-22T06:48:05.673Z,29.33
2022-08-22T06:50:36.755Z,28.65
2022-08-22T06:53:07.921Z,29.35
2022-08-22T06:55:37.920Z,27.10
2022-08-22T06:58:16.180Z,27.38
2022-08-22T07:00:47.565Z,27.33
2022-08-22T07:03:40.287Z,26.05
2022-08-22T07:06:14.503Z,26.08
2022-08-22T07:08:42.305Z,25.63
2022-08-22T07:11:21.824Z,25.23
2022-08-22T07:14:02.897Z,24.33
2022-08-22T07:16:49.880Z,25.17
2022-08-22T07:19:37.993Z,25.38
2022-08-22T07:22:23.480Z,24.23
2022-08-22T07:25:11.239Z,23.42
2022-08-22T07:28:09.042Z,22.00
2022-08-22T07:30:57.681Z,23.80
2022-08-22T07:33:42.335Z,24.13
2022-08-22T07:36:25.067Z,24.88
2022-08-22T07:39:30.065Z,22.65
2022-08-22T07:42:15.819Z,21.67
2022-08-22T07:44:45.605Z,27.05
2022-08-22T07:47:26.345Z,21.00
2022-08-22T07:50:07.432Z,20.30
2022-08-22T07:52:45.853Z,22.33
2022-08-22T07:57:56.745Z,22.80
2022-08-22T08:00:25.191Z,23.90
2022-08-22T08:05:27.603Z,23.67
2022-08-22T08:07:56.680Z,26.13
2022-08-22T08:10:31.445Z,25.27
2022-08-22T08:13:06.572Z,25.42
2022-08-22T08:15:37.381Z,24.80
2022-08-22T08:18:10.790Z,27.00
2022-08-22T08:20:38.117Z,28.45
2022-08-22T08:23:09.531Z,27.15
2022-08-22T08:25:57.641Z,27.63
2022-08-22T08:28:38.751Z,27.08
2022-08-22T08:31:10.811Z,26.75
2022-08-22T08:33:44.338Z,27.25
2022-08-22T08:36:31.303Z,54.90
2022-08-22T08:39:04.089Z,27.87
2022-08-22T08:41:49.204Z,29.65
2022-08-22T08:44:30.854Z,28.95
2022-08-22T08:47:03.483Z,29.42
2022-08-22T08:49:50.501Z,30.35
2022-08-22T08:52:39.828Z,29.30
2022-08-22T08:55:21.801Z,30.75
2022-08-22T08:58:17.809Z,32.47
2022-08-22T09:00:44.975Z,31.50
2022-08-22T09:03:37.486Z,30.67
2022-08-22T09:06:16.818Z,32.60
2022-08-22T09:09:14.743Z,32.28
2022-08-22T09:12:12.997Z,23.90
2022-08-22T09:15:01.344Z,28.83
2022-08-22T09:17:31.112Z,28.10
2022-08-22T09:20:34.693Z,29.33
2022-08-22T09:23:33.850Z,26.40
2022-08-22T09:26:08.401Z,26.98
2022-08-22T09:28:56.903Z,23.60
2022-08-22T09:34:47.730Z,22.70
2022-08-22T09:37:26.560Z,23.15
2022-08-22T09:43:08.763Z,24.90
2022-08-22T09:45:40.644Z,24.00
2022-08-22T09:48:23.878Z,24.33
2022-08-22T09:51:31.647Z,25.48
2022-08-22T09:54:21.578Z,26.92
2022-08-22T09:56:58.598Z,27.88
2022-08-22T09:59:34.159Z,27.60
2022-08-22T10:02:19.570Z,25.10
2022-08-22T10:04:58.559Z,24.75
2022-08-22T10:07:28.072Z,24.17
2022-08-22T10:10:10.265Z,22.20
2022-08-22T10:12:44.849Z,22.45
2022-08-22T10:15:52.673Z,19.63
2022-08-22T10:18:53.847Z,10.33
2022-08-22T10:21:42.736Z,7.25
2022-08-22T10:24:55.647Z,7.80
2022-08-22T10:27:41.047Z,7.28
2022-08-22T10:30:16.326Z,9.57
2022-08-22T10:33:12.162Z,9.40
2022-08-22T10:35:52.080Z,9.48
2022-08-22T10:38:46.224Z,8.85
2022-08-22T10:41:28.815Z,8.30
2022-08-22T10:44:22.009Z,8.68
2022-08-22T10:47:06.018Z,7.43
2022-08-22T10:49:35.437Z,7.05
2022-08-22T10:52:15.258Z,7.90
2022-08-22T10:54:58.052Z,8.10
2022-08-22T10:57:39.043Z,7.28
2022-08-22T11:00:27.891Z,7.78
2022-08-22T11:03:32.130Z,8.05
2022-08-22T11:06:03.603Z,7.18
2022-08-22T11:08:34.779Z,6.63
2022-08-22T11:11:09.318Z,5.40
2022-08-22T11:13:50.394Z,4.38
2022-08-22T11:16:48.417Z,4.68
2022-08-22T11:19:39.040Z,3.78
2022-08-22T11:22:21.394Z,3.10
2022-08-22T11:25:14.348Z,3.53
2022-08-22T11:27:56.455Z,4.18
2022-08-22T11:30:44.263Z,4.00
2022-08-22T11:36:36.619Z,4.75
2022-08-22T11:39:22.304Z,3.55
2022-08-22T11:41:52.487Z,3.30
2022-08-22T11:44:31.305Z,3.28
2022-08-22T11:47:07.561Z,3.78
2022-08-22T11:49:40.464Z,3.15
2022-08-22T11:52:20.654Z,2.67
2022-08-22T11:55:02.461Z,2.73
2022-08-22T11:57:32.889Z,3.35
2022-08-22T12:00:38.786Z,2.33
2022-08-22T12:03:26.641Z,2.10
2022-08-22T12:06:22.347Z,2.72
2022-08-22T12:09:08.713Z,2.38
2022-08-22T12:11:48.684Z,2.42
2022-08-22T12:14:18.728Z,2.35
2022-08-22T12:17:18.942Z,4.13
2022-08-22T12:20:17.025Z,3.00
2022-08-22T12:22:50.673Z,2.70
2022-08-22T12:25:37.436Z,2.42
2022-08-22T12:28:41.575Z,2.30
2022-08-22T12:31:11.087Z,2.65
2022-08-22T12:33:50.351Z,4.65
2022-08-22T12:36:57.074Z,2.90
2022-08-22T12:39:49.984Z,3.17
2022-08-22T12:42:22.239Z,3.00
2022-08-22T12:45:06.976Z,3.15
2022-08-22T12:47:52.104Z,3.08
2022-08-22T12:50:44.119Z,3.28
2022-08-22T12:53:39.434Z,3.72
2022-08-22T12:57:03.679Z,3.22
2022-08-22T12:59:46.789Z,3.65
2022-08-22T13:02:31.759Z,4.03
2022-08-22T13:05:09.073Z,4.55
2022-08-22T13:07:38.535Z,4.65
2022-08-22T13:10:39.453Z,4.65
2022-08-22T13:13:12.753Z,3.58
2022-08-22T13:15:53.809Z,3.80
2022-08-22T13:18:30.623Z,4.40
2022-08-22T13:21:02.348Z,3.88
2022-08-22T13:23:39.808Z,4.05
2022-08-22T13:26:31.658Z,3.55
2022-08-22T13:32:00.591Z,3.38
2022-08-22T13:34:39.998Z,3.10
2022-08-22T13:37:13.389Z,3.10
2022-08-22T13:39:45.439Z,4.65
2022-08-22T13:42:30.181Z,2.55
2022-08-22T13:45:02.484Z,3.47
2022-08-22T13:47:34.466Z,3.00
2022-08-22T13:50:07.614Z,3.15
2022-08-22T13:52:42.072Z,2.80
2022-08-22T13:55:19.139Z,3.08
2022-08-22T13:58:00.699Z,3.00
2022-08-22T14:00:48.669Z,3.38
2022-08-22T14:03:48.798Z,3.38
2022-08-22T14:06:43.801Z,2.78
2022-08-22T14:09:30.689Z,3.55
2022-08-22T14:12:21.209Z,3.15
2022-08-22T14:15:00.368Z,2.80
2022-08-22T14:17:38.498Z,3.53
2022-08-22T14:20:28.331Z,2.83
2022-08-22T14:23:07.560Z,3.80
2022-08-22T14:25:39.215Z,3.15
2022-08-22T14:28:32.863Z,2.95
2022-08-22T14:31:08.584Z,3.10
2022-08-22T14:33:40.087Z,2.92
2022-08-22T14:36:46.208Z,3.05
2022-08-22T14:39:42.773Z,3.42
2022-08-22T14:42:46.516Z,3.40
2022-08-22T14:45:25.030Z,3.53
2022-08-22T14:48:29.762Z,3.05
2022-08-22T14:50:56.581Z,3.33
2022-08-22T14:53:30.601Z,3.40
2022-08-22T14:56:00.204Z,3.05
2022-08-22T14:58:30.205Z,3.05
2022-08-22T15:01:07.078Z,3.10
2022-08-22T15:03:39.389Z,2.83
2022-08-22T15:06:57.908Z,3.08
2022-08-22T15:09:41.548Z,2.88
2022-08-22T15:12:27.287Z,3.20
2022-08-22T15:14:58.399Z,3.00
2022-08-22T15:17:38.913Z,3.55
2022-08-22T15:20:34.047Z,2.95
2022-08-22T15:23:10.109Z,2.90
2022-08-22T15:25:41.271Z,2.70
2022-08-22T15:28:20.590Z,22.92
2022-08-22T15:31:03.743Z,3.90
2022-08-22T15:33:37.902Z,2.88
2022-08-22T15:36:22.142Z,2.70
2022-08-22T15:38:56.056Z,4.00
2022-08-22T15:41:36.748Z,3.00
2022-08-22T15:44:31.082Z,2.30
2022-08-22T15:47:23.708Z,2.58
2022-08-22T15:49:56.318Z,2.67
2022-08-22T15:52:36.095Z,6.00
2022-08-22T15:55:18.042Z,3.25
2022-08-22T15:58:02.606Z,2.97
2022-08-22T16:00:32.763Z,2.45
2022-08-22T16:03:09.215Z,2.67
2022-08-22T16:05:55.380Z,2.92
2022-08-22T16:08:36.707Z,2.17
2022-08-22T16:11:03.560Z,2.70
2022-08-22T16:13:30.366Z,3.10
2022-08-22T16:16:17.826Z,2.38
2022-08-22T16:18:47.496Z,2.65
2022-08-22T16:21:23.241Z,3.85
2022-08-22T16:23:50.203Z,5.22
2022-08-22T16:26:30.736Z,2.78
2022-08-22T16:29:06.899Z,3.03
2022-08-22T16:31:39.767Z,2.80
2022-08-22T16:34:48.529Z,2.83
2022-08-22T16:37:17.921Z,2.80
2022-08-22T16:40:05.522Z,3.63
2022-08-22T16:42:51.534Z,3.10
2022-08-22T16:45:45.562Z,3.08
2022-08-22T16:48:17.349Z,3.40
2022-08-22T16:50:44.222Z,3.00
2022-08-22T16:53:30.902Z,3.33
2022-08-22T16:56:48.888Z,2.83
2022-08-22T16:59:38.415Z,3.38
2022-08-22T17:02:33.538Z,3.42
2022-08-22T17:05:09.001Z,6.68
2022-08-22T17:07:47.146Z,3.85
2022-08-22T17:10:52.918Z,2.97
2022-08-22T17:13:56.788Z,2.90
2022-08-22T17:16:56.624Z,2.88
2022-08-22T17:19:42.003Z,3.22
2022-08-22T17:22:31.957Z,2.92
2022-08-22T17:25:16.956Z,3.60
2022-08-22T17:27:48.448Z,3.33
2022-08-22T17:30:41.534Z,2.92
2022-08-22T17:33:33.304Z,3.70
2022-08-22T17:36:26.717Z,4.07
2022-08-22T17:39:18.750Z,3.10
2022-08-22T17:41:54.729Z,3.90
2022-08-22T17:44:32.639Z,3.58
2022-08-22T17:47:17.174Z,3.00
2022-08-22T17:49:45.147Z,6.70
2022-08-22T17:52:21.584Z,4.38
2022-08-22T17:55:02.174Z,3.92
2022-08-22T17:57:52.433Z,3.40
2022-08-22T18:00:30.839Z,3.58
2022-08-22T18:03:22.172Z,3.40
2022-08-22T18:06:10.139Z,3.13
2022-08-22T18:11:50.118Z,3.65
2022-08-22T18:14:36.839Z,3.78
2022-08-22T18:17:18.000Z,3.47
2022-08-22T18:20:37.571Z,3.35
2022-08-22T18:23:21.480Z,3.40
2022-08-22T18:26:23.992Z,3.28
2022-08-22T18:28:53.578Z,3.22
2022-08-22T18:34:03.183Z,3.42
2022-08-22T18:36:38.240Z,2.83
2022-08-22T18:39:16.949Z,3.58
2022-08-22T18:41:57.245Z,3.23
2022-08-22T18:44:28.810Z,3.85
2022-08-22T18:47:20.457Z,7.32
2022-08-22T18:49:54.816Z,3.13
2022-08-22T18:52:34.475Z,2.97
2022-08-22T18:55:19.442Z,3.17
2022-08-22T18:57:56.261Z,3.03
2022-08-22T19:00:44.166Z,3.05
2022-08-22T19:03:21.024Z,2.92
2022-08-22T19:06:15.246Z,2.95
2022-08-22T19:08:52.986Z,3.15
2022-08-22T19:11:37.122Z,3.40
2022-08-22T19:14:22.559Z,3.58
2022-08-22T19:17:15.045Z,3.38
2022-08-22T19:20:21.627Z,3.50
2022-08-22T19:22:50.918Z,3.22
2022-08-22T19:25:26.262Z,3.90
2022-08-22T19:28:11.504Z,3.72
2022-08-22T19:30:49.990Z,3.92
2022-08-22T19:33:19.707Z,3.20
2022-08-22T19:35:52.415Z,3.40
2022-08-22T19:38:57.476Z,4.10
2022-08-22T19:41:41.532Z,3.70
2022-08-22T19:44:33.729Z,3.72
2022-08-22T19:47:01.465Z,4.07
2022-08-22T19:49:47.886Z,4.82
2022-08-22T19:52:36.520Z,3.70
2022-08-22T19:55:44.384Z,3.90
2022-08-22T19:58:32.571Z,4.25
2022-08-22T20:01:21.721Z,4.17
2022-08-22T20:03:58.317Z,5.33
2022-08-22T20:06:55.131Z,4.50
2022-08-22T20:09:44.055Z,3.97
2022-08-22T20:12:32.251Z,4.07
2022-08-22T20:15:16.648Z,4.57
2022-08-22T20:17:43.847Z,5.03
2022-08-22T20:20:23.968Z,6.05
2022-08-22T20:23:03.006Z,5.13
2022-08-22T20:25:42.177Z,4.40
2022-08-22T20:28:28.342Z,4.38
2022-08-22T20:30:59.539Z,4.57
2022-08-22T20:33:39.715Z,4.70
2022-08-22T20:36:21.177Z,5.10
2022-08-22T20:39:00.224Z,28.95
2022-08-22T20:41:35.778Z,5.93
2022-08-22T20:44:06.963Z,5.07
2022-08-22T20:46:53.313Z,4.75
2022-08-22T20:49:24.765Z,4.70
2022-08-22T20:52:03.807Z,5.45
2022-08-22T20:54:40.271Z,4.93
2022-08-22T20:57:17.279Z,4.63
2022-08-22T21:00:14.957Z,5.43
2022-08-22T21:02:55.558Z,5.55
2022-08-22T21:05:26.002Z,5.43
2022-08-22T21:08:12.810Z,5.75
2022-08-22T21:11:14.523Z,5.90
2022-08-22T21:13:41.343Z,7.40
2022-08-22T21:16:13.096Z,6.30
2022-08-22T21:18:45.824Z,5.82
2022-08-22T21:21:19.604Z,7.43
2022-08-22T21:23:57.400Z,6.15
2022-08-22T21:26:30.218Z,6.32
2022-08-22T21:29:00.977Z,6.15
2022-08-22T21:31:38.708Z,6.25
2022-08-22T21:34:06.016Z,7.50
2022-08-22T21:36:38.187Z,7.55
2022-08-22T21:39:23.264Z,7.28
2022-08-22T21:42:08.906Z,8.85
2022-08-22T21:44:40.621Z,8.77
2022-08-22T21:47:31.240Z,7.72
2022-08-22T21:50:13.725Z,8.00
2022-08-22T21:52:53.873Z,9.10
2022-08-22T21:55:44.490Z,8.63
2022-08-22T21:58:36.309Z,9.35
2022-08-22T22:01:22.403Z,10.60
2022-08-22T22:03:52.202Z,10.75
2022-08-22T22:06:19.683Z,11.05
2022-08-22T22:08:46.533Z,11.23
2022-08-22T22:11:15.417Z,11.18
2022-08-22T22:13:43.302Z,12.18
2022-08-22T22:16:12.288Z,12.27
2022-08-22T22:18:39.918Z,12.68
2022-08-22T22:21:08.028Z,13.48
2022-08-22T22:23:34.867Z,14.10
2022-08-22T22:26:04.865Z,14.13
2022-08-22T22:28:36.833Z,14.95
2022-08-22T22:31:04.692Z,16.27
2022-08-22T22:33:36.897Z,14.50
2022-08-22T22:36:08.106Z,14.38
2022-08-22T22:38:35.367Z,14.50
2022-08-22T22:41:02.122Z,16.70
2022-08-22T22:43:29.035Z,14.27
2022-08-22T22:45:56.572Z,14.75
2022-08-22T22:48:24.719Z,16.27
2022-08-22T22:50:53.064Z,14.80
2022-08-22T22:53:21.380Z,15.38
2022-08-22T22:56:00.656Z,15.50
2022-08-22T22:58:28.517Z,15.00
2022-08-22T23:00:58.344Z,15.00
2022-08-22T23:03:26.854Z,15.05
2022-08-22T23:05:53.751Z,14.98
2022-08-22T23:08:20.543Z,13.73
2022-08-22T23:10:47.388Z,15.82
2022-08-22T23:13:14.470Z,15.18
2022-08-22T23:15:41.564Z,15.65
2022-08-22T23:18:08.452Z,15.93
2022-08-22T23:20:35.326Z,14.75
2022-08-22T23:23:02.113Z,18.60
2022-08-22T23:25:28.958Z,15.25
2022-08-22T23:27:55.855Z,15.73
2022-08-22T23:30:23.428Z,16.25
2022-08-22T23:32:50.172Z,15.80
2022-08-22T23:35:17.104Z,15.25
2022-08-22T23:37:44.236Z,15.25
2022-08-22T23:40:11.655Z,16.10
2022-08-22T23:42:38.416Z,15.60
2022-08-22T23:45:05.875Z,14.30
2022-08-22T23:47:32.610Z,14.77
2022-08-22T23:49:59.354Z,15.13
2022-08-22T23:52:33.164Z,14.40
2022-08-22T23:54:59.897Z,16.10
2022-08-22T23:57:27.580Z,15.40
2022-08-22T23:59:57.593Z,14.18
